SKUC/AUC METAR and TAF weather

Enter ICAO airport designator
Station Type Date Time Source
SKUC METAR 2019/12/12 04:00 UTC NOAA

SKUC 120400Z 00000KT CAVOK 24/22 A2983


Station Type Date Time Source
SKUC Decoded METAR 2019/12/12 04:00 UTC NOAA

Arauca / Santiago Perez, Colombia (SKUC) 07-04N 070-44W 128M
Dec 11, 2019 - 11:00 PM EST / 2019.12.12 0400 UTC
Wind: Calm:0
Visibility: greater than 7 mile(s):0
Temperature: 75 F (24 C)
Dew Point: 71 F (22 C)
Relative Humidity: 88%
Pressure (altimeter): 29.83 in. Hg (1010 hPa)
ob: SKUC 120400Z 00000KT CAVOK 24/22 A2983
cycle: 4

Station Type Date Time Source
SKUC TAF UTC NOAA

Error!

Example: see airport list